<?xml version="1.0" encoding="UTF-8" standalone="no" ?>
<gpx xmlns="http://www.topografix.com/GPX/1/1" xmlns:xsi="http://www.w3.org/2001/XMLSchema-instance" xsi:schemaLocation="http://www.topografix.com/GPX/1/1 http://www.topografix.com/GPX/1/1/gpx.xsd" version="1.1" creator="VisuGPX - https://www.visugpx.com">
  <metadata>
    <name>Gorges de Spelunca</name>
    <desc><![CDATA[Magnifique paysages dans la montagne corse]]></desc>
  </metadata>
  <trk>
    <name><![CDATA[Gorges de Spelunca]]></name>
    <trkseg>
      <trkpt lat="42.25614" lon="8.76475">
        <ele>223.119</ele>
        <time>2013-08-28T07:12:48Z</time>
      </trkpt>
      <trkpt lat="42.25614" lon="8.76475">
        <ele>223.119</ele>
        <time>2013-08-28T07:12:50Z</time>
      </trkpt>
      <trkpt lat="42.25614" lon="8.76475">
        <ele>223.895</ele>
        <time>2013-08-28T07:12:52Z</time>
      </trkpt>
      <trkpt lat="42.25618" lon="8.76483">
        <ele>222.997</ele>
        <time>2013-08-28T07:13:31Z</time>
      </trkpt>
      <trkpt lat="42.25616" lon="8.765">
        <ele>223.106</ele>
        <time>2013-08-28T07:13:42Z</time>
      </trkpt>
      <trkpt lat="42.25609" lon="8.76518">
        <ele>223.409</ele>
        <time>2013-08-28T07:14:01Z</time>
      </trkpt>
      <trkpt lat="42.25607" lon="8.76522">
        <ele>223.547</ele>
        <time>2013-08-28T07:14:07Z</time>
      </trkpt>
      <trkpt lat="42.25602" lon="8.76527">
        <ele>223.525</ele>
        <time>2013-08-28T07:14:14Z</time>
      </trkpt>
      <trkpt lat="42.25599" lon="8.76528">
        <ele>223.408</ele>
        <time>2013-08-28T07:14:17Z</time>
      </trkpt>
      <trkpt lat="42.25582" lon="8.76537">
        <ele>223.677</ele>
        <time>2013-08-28T07:14:36Z</time>
      </trkpt>
      <trkpt lat="42.25571" lon="8.7654">
        <ele>224.024</ele>
        <time>2013-08-28T07:14:46Z</time>
      </trkpt>
      <trkpt lat="42.25557" lon="8.7654">
        <ele>223.711</ele>
        <time>2013-08-28T07:15:02Z</time>
      </trkpt>
      <trkpt lat="42.25542" lon="8.76536">
        <ele>223.534</ele>
        <time>2013-08-28T07:15:17Z</time>
      </trkpt>
      <trkpt lat="42.25538" lon="8.76537">
        <ele>223.667</ele>
        <time>2013-08-28T07:15:34Z</time>
      </trkpt>
      <trkpt lat="42.2554" lon="8.76548">
        <ele>221.494</ele>
        <time>2013-08-28T07:15:59Z</time>
      </trkpt>
      <trkpt lat="42.25548" lon="8.76545">
        <ele>219.451</ele>
        <time>2013-08-28T07:16:53Z</time>
      </trkpt>
      <trkpt lat="42.25561" lon="8.76559">
        <ele>220.003</ele>
        <time>2013-08-28T07:17:19Z</time>
      </trkpt>
      <trkpt lat="42.25551" lon="8.76594">
        <ele>220.075</ele>
        <time>2013-08-28T07:17:49Z</time>
      </trkpt>
      <trkpt lat="42.25558" lon="8.76609">
        <ele>220.407</ele>
        <time>2013-08-28T07:19:31Z</time>
      </trkpt>
      <trkpt lat="42.25533" lon="8.76634">
        <ele>218.795</ele>
        <time>2013-08-28T07:20:04Z</time>
      </trkpt>
      <trkpt lat="42.25527" lon="8.76645">
        <ele>219.942</ele>
        <time>2013-08-28T07:20:43Z</time>
      </trkpt>
      <trkpt lat="42.25515" lon="8.7664">
        <ele>219.762</ele>
        <time>2013-08-28T07:21:13Z</time>
      </trkpt>
      <trkpt lat="42.25511" lon="8.76636">
        <ele>219.59</ele>
        <time>2013-08-28T07:21:30Z</time>
      </trkpt>
      <trkpt lat="42.25515" lon="8.76632">
        <ele>218.959</ele>
        <time>2013-08-28T07:22:04Z</time>
      </trkpt>
      <trkpt lat="42.25534" lon="8.76634">
        <ele>219.447</ele>
        <time>2013-08-28T07:22:38Z</time>
      </trkpt>
      <trkpt lat="42.25541" lon="8.76612">
        <ele>219.2</ele>
        <time>2013-08-28T07:23:26Z</time>
      </trkpt>
      <trkpt lat="42.25533" lon="8.76597">
        <ele>221.327</ele>
        <time>2013-08-28T07:24:16Z</time>
      </trkpt>
      <trkpt lat="42.25474" lon="8.76619">
        <ele>224.043</ele>
        <time>2013-08-28T07:24:52Z</time>
      </trkpt>
      <trkpt lat="42.25472" lon="8.76625">
        <ele>224.104</ele>
        <time>2013-08-28T07:24:55Z</time>
      </trkpt>
      <trkpt lat="42.25455" lon="8.76639">
        <ele>225.766</ele>
        <time>2013-08-28T07:25:20Z</time>
      </trkpt>
      <trkpt lat="42.25448" lon="8.76635">
        <ele>227.507</ele>
        <time>2013-08-28T07:25:34Z</time>
      </trkpt>
      <trkpt lat="42.25445" lon="8.76644">
        <ele>228.186</ele>
        <time>2013-08-28T07:26:13Z</time>
      </trkpt>
      <trkpt lat="42.25436" lon="8.7664">
        <ele>228.472</ele>
        <time>2013-08-28T07:26:49Z</time>
      </trkpt>
      <trkpt lat="42.25419" lon="8.76651">
        <ele>228.865</ele>
        <time>2013-08-28T07:27:14Z</time>
      </trkpt>
      <trkpt lat="42.25402" lon="8.76661">
        <ele>230.128</ele>
        <time>2013-08-28T07:27:34Z</time>
      </trkpt>
      <trkpt lat="42.25391" lon="8.76641">
        <ele>231.827</ele>
        <time>2013-08-28T07:27:52Z</time>
      </trkpt>
      <trkpt lat="42.25378" lon="8.76631">
        <ele>232.422</ele>
        <time>2013-08-28T07:28:13Z</time>
      </trkpt>
      <trkpt lat="42.25369" lon="8.76647">
        <ele>233.542</ele>
        <time>2013-08-28T07:28:36Z</time>
      </trkpt>
      <trkpt lat="42.25352" lon="8.76658">
        <ele>235.514</ele>
        <time>2013-08-28T07:29:02Z</time>
      </trkpt>
      <trkpt lat="42.25332" lon="8.76662">
        <ele>237.839</ele>
        <time>2013-08-28T07:29:35Z</time>
      </trkpt>
      <trkpt lat="42.25314" lon="8.76654">
        <ele>239.921</ele>
        <time>2013-08-28T07:30:01Z</time>
      </trkpt>
      <trkpt lat="42.25298" lon="8.76676">
        <ele>243.11</ele>
        <time>2013-08-28T07:30:37Z</time>
      </trkpt>
      <trkpt lat="42.25306" lon="8.76693">
        <ele>245.036</ele>
        <time>2013-08-28T07:31:01Z</time>
      </trkpt>
      <trkpt lat="42.25307" lon="8.76658">
        <ele>247.324</ele>
        <time>2013-08-28T07:31:34Z</time>
      </trkpt>
      <trkpt lat="42.25287" lon="8.76689">
        <ele>250.593</ele>
        <time>2013-08-28T07:32:08Z</time>
      </trkpt>
      <trkpt lat="42.25278" lon="8.76704">
        <ele>253.493</ele>
        <time>2013-08-28T07:32:32Z</time>
      </trkpt>
      <trkpt lat="42.25264" lon="8.76715">
        <ele>254.77</ele>
        <time>2013-08-28T07:32:56Z</time>
      </trkpt>
      <trkpt lat="42.25246" lon="8.76725">
        <ele>255.93</ele>
        <time>2013-08-28T07:33:20Z</time>
      </trkpt>
      <trkpt lat="42.25229" lon="8.76734">
        <ele>257.835</ele>
        <time>2013-08-28T07:33:52Z</time>
      </trkpt>
      <trkpt lat="42.25228" lon="8.76728">
        <ele>256.702</ele>
        <time>2013-08-28T07:34:10Z</time>
      </trkpt>
      <trkpt lat="42.25222" lon="8.76738">
        <ele>258.196</ele>
        <time>2013-08-28T07:34:37Z</time>
      </trkpt>
      <trkpt lat="42.25209" lon="8.76745">
        <ele>258.815</ele>
        <time>2013-08-28T07:35:04Z</time>
      </trkpt>
      <trkpt lat="42.25194" lon="8.76737">
        <ele>259.261</ele>
        <time>2013-08-28T07:35:21Z</time>
      </trkpt>
      <trkpt lat="42.25183" lon="8.76732">
        <ele>259.665</ele>
        <time>2013-08-28T07:35:35Z</time>
      </trkpt>
      <trkpt lat="42.25169" lon="8.76735">
        <ele>260.325</ele>
        <time>2013-08-28T07:35:56Z</time>
      </trkpt>
      <trkpt lat="42.25157" lon="8.76723">
        <ele>261.232</ele>
        <time>2013-08-28T07:37:48Z</time>
      </trkpt>
      <trkpt lat="42.25146" lon="8.7671">
        <ele>262.399</ele>
        <time>2013-08-28T07:38:21Z</time>
      </trkpt>
      <trkpt lat="42.25139" lon="8.76725">
        <ele>262.468</ele>
        <time>2013-08-28T07:39:04Z</time>
      </trkpt>
      <trkpt lat="42.25128" lon="8.76732">
        <ele>263.223</ele>
        <time>2013-08-28T07:39:31Z</time>
      </trkpt>
      <trkpt lat="42.25105" lon="8.76758">
        <ele>260.203</ele>
        <time>2013-08-28T07:40:13Z</time>
      </trkpt>
      <trkpt lat="42.25093" lon="8.76746">
        <ele>259.247</ele>
        <time>2013-08-28T07:40:30Z</time>
      </trkpt>
      <trkpt lat="42.25093" lon="8.76718">
        <ele>260.706</ele>
        <time>2013-08-28T07:41:07Z</time>
      </trkpt>
      <trkpt lat="42.25048" lon="8.76748">
        <ele>262.143</ele>
        <time>2013-08-28T07:42:26Z</time>
      </trkpt>
      <trkpt lat="42.2507" lon="8.76742">
        <ele>262.51</ele>
        <time>2013-08-28T07:42:58Z</time>
      </trkpt>
      <trkpt lat="42.25069" lon="8.76763">
        <ele>265.549</ele>
        <time>2013-08-28T07:44:18Z</time>
      </trkpt>
      <trkpt lat="42.25066" lon="8.76769">
        <ele>265.48</ele>
        <time>2013-08-28T07:44:42Z</time>
      </trkpt>
      <trkpt lat="42.25077" lon="8.76783">
        <ele>267.924</ele>
        <time>2013-08-28T07:45:13Z</time>
      </trkpt>
      <trkpt lat="42.25077" lon="8.76795">
        <ele>271.061</ele>
        <time>2013-08-28T07:45:36Z</time>
      </trkpt>
      <trkpt lat="42.2506" lon="8.76832">
        <ele>272.567</ele>
        <time>2013-08-28T07:46:21Z</time>
      </trkpt>
      <trkpt lat="42.25062" lon="8.76846">
        <ele>275.923</ele>
        <time>2013-08-28T07:46:42Z</time>
      </trkpt>
      <trkpt lat="42.25055" lon="8.76847">
        <ele>277.914</ele>
        <time>2013-08-28T07:47:29Z</time>
      </trkpt>
      <trkpt lat="42.25051" lon="8.76856">
        <ele>281.061</ele>
        <time>2013-08-28T07:48:00Z</time>
      </trkpt>
      <trkpt lat="42.25045" lon="8.76868">
        <ele>283.55</ele>
        <time>2013-08-28T07:48:27Z</time>
      </trkpt>
      <trkpt lat="42.25048" lon="8.76875">
        <ele>285.183</ele>
        <time>2013-08-28T07:48:50Z</time>
      </trkpt>
      <trkpt lat="42.25047" lon="8.76878">
        <ele>284.897</ele>
        <time>2013-08-28T07:48:53Z</time>
      </trkpt>
      <trkpt lat="42.2504" lon="8.76889">
        <ele>285.965</ele>
        <time>2013-08-28T07:49:06Z</time>
      </trkpt>
      <trkpt lat="42.25045" lon="8.76905">
        <ele>287.364</ele>
        <time>2013-08-28T07:49:24Z</time>
      </trkpt>
      <trkpt lat="42.2506" lon="8.76912">
        <ele>287.667</ele>
        <time>2013-08-28T07:49:50Z</time>
      </trkpt>
      <trkpt lat="42.25061" lon="8.76921">
        <ele>287.66</ele>
        <time>2013-08-28T07:50:07Z</time>
      </trkpt>
      <trkpt lat="42.25051" lon="8.76922">
        <ele>288.283</ele>
        <time>2013-08-28T07:50:38Z</time>
      </trkpt>
      <trkpt lat="42.25053" lon="8.76946">
        <ele>288.735</ele>
        <time>2013-08-28T07:51:03Z</time>
      </trkpt>
      <trkpt lat="42.25061" lon="8.76971">
        <ele>288.431</ele>
        <time>2013-08-28T07:51:46Z</time>
      </trkpt>
      <trkpt lat="42.25053" lon="8.7697">
        <ele>288.452</ele>
        <time>2013-08-28T07:52:11Z</time>
      </trkpt>
      <trkpt lat="42.25045" lon="8.76983">
        <ele>286.365</ele>
        <time>2013-08-28T07:52:32Z</time>
      </trkpt>
      <trkpt lat="42.25046" lon="8.77003">
        <ele>283.281</ele>
        <time>2013-08-28T07:52:59Z</time>
      </trkpt>
      <trkpt lat="42.25018" lon="8.77005">
        <ele>281.383</ele>
        <time>2013-08-28T07:53:45Z</time>
      </trkpt>
      <trkpt lat="42.25006" lon="8.77012">
        <ele>281.713</ele>
        <time>2013-08-28T07:54:12Z</time>
      </trkpt>
      <trkpt lat="42.25003" lon="8.77025">
        <ele>281.986</ele>
        <time>2013-08-28T07:54:32Z</time>
      </trkpt>
      <trkpt lat="42.24992" lon="8.77049">
        <ele>280.989</ele>
        <time>2013-08-28T07:54:54Z</time>
      </trkpt>
      <trkpt lat="42.24989" lon="8.77076">
        <ele>282.077</ele>
        <time>2013-08-28T07:55:15Z</time>
      </trkpt>
      <trkpt lat="42.24988" lon="8.77087">
        <ele>282.188</ele>
        <time>2013-08-28T07:55:35Z</time>
      </trkpt>
      <trkpt lat="42.24992" lon="8.77096">
        <ele>281.005</ele>
        <time>2013-08-28T07:55:51Z</time>
      </trkpt>
      <trkpt lat="42.24992" lon="8.77097">
        <ele>280.586</ele>
        <time>2013-08-28T07:55:53Z</time>
      </trkpt>
      <trkpt lat="42.24997" lon="8.77103">
        <ele>279.428</ele>
        <time>2013-08-28T07:56:18Z</time>
      </trkpt>
      <trkpt lat="42.25002" lon="8.77112">
        <ele>279.542</ele>
        <time>2013-08-28T07:56:46Z</time>
      </trkpt>
      <trkpt lat="42.24987" lon="8.77112">
        <ele>277.738</ele>
        <time>2013-08-28T07:57:08Z</time>
      </trkpt>
      <trkpt lat="42.24978" lon="8.77121">
        <ele>276.241</ele>
        <time>2013-08-28T07:57:30Z</time>
      </trkpt>
      <trkpt lat="42.24978" lon="8.77131">
        <ele>274.462</ele>
        <time>2013-08-28T07:57:44Z</time>
      </trkpt>
      <trkpt lat="42.24985" lon="8.77162">
        <ele>274.442</ele>
        <time>2013-08-28T07:58:13Z</time>
      </trkpt>
      <trkpt lat="42.24984" lon="8.7716">
        <ele>274.429</ele>
        <time>2013-08-28T07:58:37Z</time>
      </trkpt>
      <trkpt lat="42.24979" lon="8.77166">
        <ele>277.715</ele>
        <time>2013-08-28T07:59:36Z</time>
      </trkpt>
      <trkpt lat="42.24984" lon="8.77185">
        <ele>277.703</ele>
        <time>2013-08-28T07:59:55Z</time>
      </trkpt>
      <trkpt lat="42.24985" lon="8.77196">
        <ele>274.361</ele>
        <time>2013-08-28T08:00:10Z</time>
      </trkpt>
      <trkpt lat="42.24984" lon="8.7721">
        <ele>272.337</ele>
        <time>2013-08-28T08:00:25Z</time>
      </trkpt>
      <trkpt lat="42.24989" lon="8.77217">
        <ele>271.731</ele>
        <time>2013-08-28T08:00:38Z</time>
      </trkpt>
      <trkpt lat="42.24992" lon="8.77224">
        <ele>271.72</ele>
        <time>2013-08-28T08:00:51Z</time>
      </trkpt>
      <trkpt lat="42.25002" lon="8.77218">
        <ele>271.709</ele>
        <time>2013-08-28T08:01:13Z</time>
      </trkpt>
      <trkpt lat="42.24993" lon="8.77239">
        <ele>271.527</ele>
        <time>2013-08-28T08:01:23Z</time>
      </trkpt>
      <trkpt lat="42.24995" lon="8.77236">
        <ele>271.336</ele>
        <time>2013-08-28T08:01:37Z</time>
      </trkpt>
      <trkpt lat="42.24992" lon="8.77244">
        <ele>274.254</ele>
        <time>2013-08-28T08:02:16Z</time>
      </trkpt>
      <trkpt lat="42.24994" lon="8.7726">
        <ele>277.366</ele>
        <time>2013-08-28T08:02:29Z</time>
      </trkpt>
      <trkpt lat="42.24994" lon="8.77273">
        <ele>277.495</ele>
        <time>2013-08-28T08:02:47Z</time>
      </trkpt>
      <trkpt lat="42.24996" lon="8.77285">
        <ele>279.254</ele>
        <time>2013-08-28T08:03:14Z</time>
      </trkpt>
      <trkpt lat="42.24951" lon="8.77285">
        <ele>279.202</ele>
        <time>2013-08-28T08:03:49Z</time>
      </trkpt>
      <trkpt lat="42.24975" lon="8.77293">
        <ele>279.081</ele>
        <time>2013-08-28T08:04:09Z</time>
      </trkpt>
      <trkpt lat="42.24986" lon="8.77295">
        <ele>279.061</ele>
        <time>2013-08-28T08:04:16Z</time>
      </trkpt>
      <trkpt lat="42.25011" lon="8.77311">
        <ele>280.767</ele>
        <time>2013-08-28T08:04:39Z</time>
      </trkpt>
      <trkpt lat="42.25018" lon="8.77319">
        <ele>281.982</ele>
        <time>2013-08-28T08:05:04Z</time>
      </trkpt>
      <trkpt lat="42.2503" lon="8.77338">
        <ele>284.999</ele>
        <time>2013-08-28T08:05:30Z</time>
      </trkpt>
      <trkpt lat="42.25039" lon="8.7735">
        <ele>285.703</ele>
        <time>2013-08-28T08:05:57Z</time>
      </trkpt>
      <trkpt lat="42.25044" lon="8.7736">
        <ele>286.051</ele>
        <time>2013-08-28T08:06:40Z</time>
      </trkpt>
      <trkpt lat="42.25042" lon="8.77368">
        <ele>285.437</ele>
        <time>2013-08-28T08:07:07Z</time>
      </trkpt>
      <trkpt lat="42.25047" lon="8.77385">
        <ele>288.219</ele>
        <time>2013-08-28T08:07:33Z</time>
      </trkpt>
      <trkpt lat="42.2505" lon="8.77384">
        <ele>287.969</ele>
        <time>2013-08-28T08:07:55Z</time>
      </trkpt>
      <trkpt lat="42.2505" lon="8.77397">
        <ele>289.447</ele>
        <time>2013-08-28T08:08:10Z</time>
      </trkpt>
      <trkpt lat="42.25041" lon="8.77413">
        <ele>288.996</ele>
        <time>2013-08-28T08:09:09Z</time>
      </trkpt>
      <trkpt lat="42.25053" lon="8.77425">
        <ele>288.041</ele>
        <time>2013-08-28T08:09:36Z</time>
      </trkpt>
      <trkpt lat="42.25043" lon="8.77435">
        <ele>287.381</ele>
        <time>2013-08-28T08:09:50Z</time>
      </trkpt>
      <trkpt lat="42.25038" lon="8.77442">
        <ele>286.72</ele>
        <time>2013-08-28T08:09:57Z</time>
      </trkpt>
      <trkpt lat="42.25042" lon="8.7746">
        <ele>287.103</ele>
        <time>2013-08-28T08:10:10Z</time>
      </trkpt>
      <trkpt lat="42.25041" lon="8.77466">
        <ele>286.565</ele>
        <time>2013-08-28T08:10:17Z</time>
      </trkpt>
      <trkpt lat="42.25046" lon="8.7747">
        <ele>286.55</ele>
        <time>2013-08-28T08:10:20Z</time>
      </trkpt>
      <trkpt lat="42.25043" lon="8.77484">
        <ele>286.836</ele>
        <time>2013-08-28T08:10:37Z</time>
      </trkpt>
      <trkpt lat="42.25043" lon="8.77489">
        <ele>286.825</ele>
        <time>2013-08-28T08:10:40Z</time>
      </trkpt>
      <trkpt lat="42.25043" lon="8.77496">
        <ele>286.512</ele>
        <time>2013-08-28T08:11:02Z</time>
      </trkpt>
      <trkpt lat="42.25036" lon="8.77479">
        <ele>286.872</ele>
        <time>2013-08-28T08:12:34Z</time>
      </trkpt>
      <trkpt lat="42.25041" lon="8.7749">
        <ele>286.966</ele>
        <time>2013-08-28T08:13:23Z</time>
      </trkpt>
      <trkpt lat="42.25032" lon="8.77519">
        <ele>287.476</ele>
        <time>2013-08-28T08:13:52Z</time>
      </trkpt>
      <trkpt lat="42.25036" lon="8.77531">
        <ele>287.254</ele>
        <time>2013-08-28T08:13:58Z</time>
      </trkpt>
      <trkpt lat="42.25032" lon="8.77553">
        <ele>286.45</ele>
        <time>2013-08-28T08:14:20Z</time>
      </trkpt>
      <trkpt lat="42.25027" lon="8.77545">
        <ele>286.568</ele>
        <time>2013-08-28T08:14:43Z</time>
      </trkpt>
      <trkpt lat="42.2503" lon="8.7755">
        <ele>285.243</ele>
        <time>2013-08-28T08:14:56Z</time>
      </trkpt>
      <trkpt lat="42.25032" lon="8.77551">
        <ele>284.39</ele>
        <time>2013-08-28T08:15:00Z</time>
      </trkpt>
      <trkpt lat="42.25038" lon="8.77562">
        <ele>281.996</ele>
        <time>2013-08-28T08:15:15Z</time>
      </trkpt>
      <trkpt lat="42.25034" lon="8.77567">
        <ele>280.26</ele>
        <time>2013-08-28T08:15:35Z</time>
      </trkpt>
      <trkpt lat="42.25029" lon="8.77573">
        <ele>276.999</ele>
        <time>2013-08-28T08:15:55Z</time>
      </trkpt>
      <trkpt lat="42.2502" lon="8.77573">
        <ele>275.041</ele>
        <time>2013-08-28T08:16:10Z</time>
      </trkpt>
      <trkpt lat="42.25008" lon="8.77579">
        <ele>272.468</ele>
        <time>2013-08-28T08:16:23Z</time>
      </trkpt>
      <trkpt lat="42.25022" lon="8.77603">
        <ele>271.538</ele>
        <time>2013-08-28T08:16:36Z</time>
      </trkpt>
      <trkpt lat="42.25027" lon="8.77591">
        <ele>269.648</ele>
        <time>2013-08-28T08:17:10Z</time>
      </trkpt>
      <trkpt lat="42.25031" lon="8.77608">
        <ele>270.256</ele>
        <time>2013-08-28T08:17:50Z</time>
      </trkpt>
      <trkpt lat="42.25011" lon="8.77604">
        <ele>270.401</ele>
        <time>2013-08-28T08:18:24Z</time>
      </trkpt>
      <trkpt lat="42.25022" lon="8.77617">
        <ele>269.405</ele>
        <time>2013-08-28T08:19:13Z</time>
      </trkpt>
      <trkpt lat="42.25027" lon="8.77619">
        <ele>269.963</ele>
        <time>2013-08-28T08:19:54Z</time>
      </trkpt>
      <trkpt lat="42.25027" lon="8.77615">
        <ele>267.648</ele>
        <time>2013-08-28T08:20:17Z</time>
      </trkpt>
      <trkpt lat="42.25021" lon="8.77607">
        <ele>267.27</ele>
        <time>2013-08-28T08:21:36Z</time>
      </trkpt>
      <trkpt lat="42.25028" lon="8.77604">
        <ele>266.66</ele>
        <time>2013-08-28T08:21:57Z</time>
      </trkpt>
      <trkpt lat="42.25033" lon="8.77604">
        <ele>266.84</ele>
        <time>2013-08-28T08:22:36Z</time>
      </trkpt>
      <trkpt lat="42.25019" lon="8.77612">
        <ele>267.089</ele>
        <time>2013-08-28T08:23:30Z</time>
      </trkpt>
      <trkpt lat="42.25012" lon="8.7762">
        <ele>270.381</ele>
        <time>2013-08-28T08:23:59Z</time>
      </trkpt>
      <trkpt lat="42.25011" lon="8.77636">
        <ele>273.543</ele>
        <time>2013-08-28T08:24:22Z</time>
      </trkpt>
      <trkpt lat="42.25011" lon="8.77645">
        <ele>276.936</ele>
        <time>2013-08-28T08:24:56Z</time>
      </trkpt>
      <trkpt lat="42.25021" lon="8.77646">
        <ele>278.77</ele>
        <time>2013-08-28T08:26:01Z</time>
      </trkpt>
      <trkpt lat="42.25022" lon="8.77649">
        <ele>280.562</ele>
        <time>2013-08-28T08:27:25Z</time>
      </trkpt>
      <trkpt lat="42.25024" lon="8.77653">
        <ele>280.623</ele>
        <time>2013-08-28T08:28:09Z</time>
      </trkpt>
      <trkpt lat="42.25025" lon="8.77652">
        <ele>281.299</ele>
        <time>2013-08-28T08:28:59Z</time>
      </trkpt>
      <trkpt lat="42.25031" lon="8.77663">
        <ele>282.105</ele>
        <time>2013-08-28T08:29:42Z</time>
      </trkpt>
      <trkpt lat="42.25036" lon="8.77669">
        <ele>285.163</ele>
        <time>2013-08-28T08:30:10Z</time>
      </trkpt>
      <trkpt lat="42.25038" lon="8.77672">
        <ele>288.205</ele>
        <time>2013-08-28T08:30:33Z</time>
      </trkpt>
      <trkpt lat="42.25026" lon="8.77669">
        <ele>290.974</ele>
        <time>2013-08-28T08:30:55Z</time>
      </trkpt>
      <trkpt lat="42.25016" lon="8.77674">
        <ele>292.652</ele>
        <time>2013-08-28T08:31:18Z</time>
      </trkpt>
      <trkpt lat="42.25028" lon="8.77682">
        <ele>295.781</ele>
        <time>2013-08-28T08:31:45Z</time>
      </trkpt>
      <trkpt lat="42.25026" lon="8.77685">
        <ele>295.713</ele>
        <time>2013-08-28T08:32:34Z</time>
      </trkpt>
      <trkpt lat="42.25026" lon="8.77686">
        <ele>295.983</ele>
        <time>2013-08-28T08:33:26Z</time>
      </trkpt>
      <trkpt lat="42.25018" lon="8.77689">
        <ele>293.65</ele>
        <time>2013-08-28T08:33:55Z</time>
      </trkpt>
      <trkpt lat="42.25018" lon="8.77677">
        <ele>291.389</ele>
        <time>2013-08-28T08:34:15Z</time>
      </trkpt>
      <trkpt lat="42.25034" lon="8.77672">
        <ele>288.474</ele>
        <time>2013-08-28T08:34:44Z</time>
      </trkpt>
      <trkpt lat="42.25037" lon="8.77662">
        <ele>285.183</ele>
        <time>2013-08-28T08:35:14Z</time>
      </trkpt>
      <trkpt lat="42.25019" lon="8.77641">
        <ele>282.325</ele>
        <time>2013-08-28T08:35:46Z</time>
      </trkpt>
      <trkpt lat="42.2501" lon="8.77635">
        <ele>281.228</ele>
        <time>2013-08-28T08:36:03Z</time>
      </trkpt>
      <trkpt lat="42.24998" lon="8.77632">
        <ele>278.176</ele>
        <time>2013-08-28T08:36:25Z</time>
      </trkpt>
      <trkpt lat="42.25005" lon="8.77616">
        <ele>274.423</ele>
        <time>2013-08-28T08:36:55Z</time>
      </trkpt>
      <trkpt lat="42.25012" lon="8.77611">
        <ele>273.132</ele>
        <time>2013-08-28T08:37:11Z</time>
      </trkpt>
      <trkpt lat="42.25027" lon="8.77612">
        <ele>272.273</ele>
        <time>2013-08-28T08:38:08Z</time>
      </trkpt>
      <trkpt lat="42.25029" lon="8.77608">
        <ele>273.174</ele>
        <time>2013-08-28T08:38:35Z</time>
      </trkpt>
      <trkpt lat="42.25033" lon="8.77603">
        <ele>273.256</ele>
        <time>2013-08-28T08:38:53Z</time>
      </trkpt>
      <trkpt lat="42.25027" lon="8.77583">
        <ele>273.774</ele>
        <time>2013-08-28T08:39:12Z</time>
      </trkpt>
      <trkpt lat="42.2502" lon="8.77581">
        <ele>270.722</ele>
        <time>2013-08-28T08:39:33Z</time>
      </trkpt>
      <trkpt lat="42.2502" lon="8.77604">
        <ele>268.907</ele>
        <time>2013-08-28T08:40:02Z</time>
      </trkpt>
      <trkpt lat="42.25037" lon="8.77593">
        <ele>269.443</ele>
        <time>2013-08-28T08:40:40Z</time>
      </trkpt>
      <trkpt lat="42.25049" lon="8.77594">
        <ele>269.076</ele>
        <time>2013-08-28T08:41:00Z</time>
      </trkpt>
      <trkpt lat="42.25049" lon="8.77589">
        <ele>268.228</ele>
        <time>2013-08-28T08:41:14Z</time>
      </trkpt>
      <trkpt lat="42.25052" lon="8.77584">
        <ele>268.286</ele>
        <time>2013-08-28T08:41:32Z</time>
      </trkpt>
      <trkpt lat="42.25051" lon="8.77584">
        <ele>268.455</ele>
        <time>2013-08-28T08:42:18Z</time>
      </trkpt>
      <trkpt lat="42.25052" lon="8.77578">
        <ele>268.172</ele>
        <time>2013-08-28T08:42:27Z</time>
      </trkpt>
      <trkpt lat="42.25053" lon="8.77568">
        <ele>268.273</ele>
        <time>2013-08-28T08:42:42Z</time>
      </trkpt>
      <trkpt lat="42.25056" lon="8.7755">
        <ele>269.143</ele>
        <time>2013-08-28T08:43:10Z</time>
      </trkpt>
      <trkpt lat="42.25067" lon="8.77545">
        <ele>268.978</ele>
        <time>2013-08-28T08:43:38Z</time>
      </trkpt>
      <trkpt lat="42.25069" lon="8.77536">
        <ele>268.925</ele>
        <time>2013-08-28T08:44:15Z</time>
      </trkpt>
      <trkpt lat="42.25071" lon="8.77532">
        <ele>268.581</ele>
        <time>2013-08-28T08:44:45Z</time>
      </trkpt>
      <trkpt lat="42.25077" lon="8.77552">
        <ele>268.546</ele>
        <time>2013-08-28T08:45:24Z</time>
      </trkpt>
      <trkpt lat="42.2507" lon="8.77545">
        <ele>268.618</ele>
        <time>2013-08-28T08:45:59Z</time>
      </trkpt>
      <trkpt lat="42.2507" lon="8.77548">
        <ele>267.312</ele>
        <time>2013-08-28T08:46:30Z</time>
      </trkpt>
      <trkpt lat="42.2506" lon="8.77556">
        <ele>268.602</ele>
        <time>2013-08-28T08:48:04Z</time>
      </trkpt>
      <trkpt lat="42.25047" lon="8.77583">
        <ele>268.01</ele>
        <time>2013-08-28T08:48:36Z</time>
      </trkpt>
      <trkpt lat="42.2505" lon="8.77596">
        <ele>267.257</ele>
        <time>2013-08-28T08:49:34Z</time>
      </trkpt>
      <trkpt lat="42.25051" lon="8.77605">
        <ele>268.152</ele>
        <time>2013-08-28T08:49:55Z</time>
      </trkpt>
      <trkpt lat="42.25055" lon="8.77614">
        <ele>267.569</ele>
        <time>2013-08-28T08:50:19Z</time>
      </trkpt>
      <trkpt lat="42.25064" lon="8.77616">
        <ele>267.068</ele>
        <time>2013-08-28T08:50:34Z</time>
      </trkpt>
      <trkpt lat="42.2507" lon="8.77614">
        <ele>266.409</ele>
        <time>2013-08-28T08:51:05Z</time>
      </trkpt>
      <trkpt lat="42.25068" lon="8.7761">
        <ele>266.121</ele>
        <time>2013-08-28T08:51:17Z</time>
      </trkpt>
      <trkpt lat="42.25069" lon="8.77606">
        <ele>265.684</ele>
        <time>2013-08-28T08:51:36Z</time>
      </trkpt>
      <trkpt lat="42.25069" lon="8.77604">
        <ele>265.749</ele>
        <time>2013-08-28T08:51:59Z</time>
      </trkpt>
    </trkseg>
  </trk>
</gpx>